sensor_id;sensor_type;location;lat;lon;timestamp;P1;durP1;ratioP1;P2;durP2;ratioP2
6842;SDS011;3460;52.028;8.916;2023-04-24T00:01:08;1.43;;;0.80;;
6842;SDS011;3460;52.028;8.916;2023-04-24T00:03:37;1.40;;;0.63;;
6842;SDS011;3460;52.028;8.916;2023-04-24T00:06:04;0.93;;;0.80;;
6842;SDS011;3460;52.028;8.916;2023-04-24T00:08:31;2.37;;;0.93;;
6842;SDS011;3460;52.028;8.916;2023-04-24T00:10:58;0.87;;;0.73;;
6842;SDS011;3460;52.028;8.916;2023-04-24T00:13:25;1.60;;;0.80;;
6842;SDS011;3460;52.028;8.916;2023-04-24T00:15:53;2.20;;;0.90;;
6842;SDS011;3460;52.028;8.916;2023-04-24T00:18:20;1.60;;;0.73;;
6842;SDS011;3460;52.028;8.916;2023-04-24T00:20:48;1.20;;;0.83;;
6842;SDS011;3460;52.028;8.916;2023-04-24T00:23:15;1.37;;;0.80;;
6842;SDS011;3460;52.028;8.916;2023-04-24T00:25:42;1.27;;;0.80;;
6842;SDS011;3460;52.028;8.916;2023-04-24T00:28:08;1.53;;;0.90;;
6842;SDS011;3460;52.028;8.916;2023-04-24T00:30:35;0.73;;;0.70;;
6842;SDS011;3460;52.028;8.916;2023-04-24T00:33:02;2.60;;;0.60;;
6842;SDS011;3460;52.028;8.916;2023-04-24T00:35:29;1.57;;;0.70;;
6842;SDS011;3460;52.028;8.916;2023-04-24T00:37:57;1.17;;;0.70;;
6842;SDS011;3460;52.028;8.916;2023-04-24T00:40:24;1.43;;;0.60;;
6842;SDS011;3460;52.028;8.916;2023-04-24T00:42:51;1.80;;;0.80;;
6842;SDS011;3460;52.028;8.916;2023-04-24T00:45:18;2.80;;;0.70;;
6842;SDS011;3460;52.028;8.916;2023-04-24T00:47:45;0.67;;;0.60;;
6842;SDS011;3460;52.028;8.916;2023-04-24T00:50:14;2.33;;;0.60;;
6842;SDS011;3460;52.028;8.916;2023-04-24T00:52:42;0.90;;;0.67;;
6842;SDS011;3460;52.028;8.916;2023-04-24T00:55:10;0.83;;;0.60;;
6842;SDS011;3460;52.028;8.916;2023-04-24T00:57:37;0.83;;;0.70;;
6842;SDS011;3460;52.028;8.916;2023-04-24T01:00:05;0.67;;;0.67;;
6842;SDS011;3460;52.028;8.916;2023-04-24T01:02:35;1.87;;;0.60;;
6842;SDS011;3460;52.028;8.916;2023-04-24T01:05:05;0.73;;;0.40;;
6842;SDS011;3460;52.028;8.916;2023-04-24T01:07:32;1.30;;;0.70;;
6842;SDS011;3460;52.028;8.916;2023-04-24T01:09:59;2.43;;;0.80;;
6842;SDS011;3460;52.028;8.916;2023-04-24T01:12:27;0.90;;;0.70;;
6842;SDS011;3460;52.028;8.916;2023-04-24T01:14:54;1.63;;;0.83;;
6842;SDS011;3460;52.028;8.916;2023-04-24T01:17:22;0.70;;;0.60;;
6842;SDS011;3460;52.028;8.916;2023-04-24T01:19:49;0.60;;;0.60;;
6842;SDS011;3460;52.028;8.916;2023-04-24T01:22:20;2.13;;;0.67;;
6842;SDS011;3460;52.028;8.916;2023-04-24T01:24:46;1.37;;;0.70;;
6842;SDS011;3460;52.028;8.916;2023-04-24T01:27:13;0.60;;;0.60;;
6842;SDS011;3460;52.028;8.916;2023-04-24T01:29:40;0.97;;;0.70;;
6842;SDS011;3460;52.028;8.916;2023-04-24T01:32:07;1.20;;;0.60;;
6842;SDS011;3460;52.028;8.916;2023-04-24T01:34:34;0.57;;;0.57;;
6842;SDS011;3460;52.028;8.916;2023-04-24T01:37:01;0.93;;;0.50;;
6842;SDS011;3460;52.028;8.916;2023-04-24T01:39:29;1.13;;;0.50;;
6842;SDS011;3460;52.028;8.916;2023-04-24T01:41:56;2.80;;;0.70;;
6842;SDS011;3460;52.028;8.916;2023-04-24T01:44:23;0.50;;;0.50;;
6842;SDS011;3460;52.028;8.916;2023-04-24T01:46:50;2.30;;;0.70;;
6842;SDS011;3460;52.028;8.916;2023-04-24T01:49:18;1.13;;;0.70;;
6842;SDS011;3460;52.028;8.916;2023-04-24T01:51:46;0.70;;;0.60;;
6842;SDS011;3460;52.028;8.916;2023-04-24T01:54:12;0.70;;;0.60;;
6842;SDS011;3460;52.028;8.916;2023-04-24T01:56:41;0.67;;;0.67;;
6842;SDS011;3460;52.028;8.916;2023-04-24T01:59:09;0.70;;;0.50;;
6842;SDS011;3460;52.028;8.916;2023-04-24T02:01:36;0.47;;;0.47;;
6842;SDS011;3460;52.028;8.916;2023-04-24T02:04:04;1.07;;;0.60;;
6842;SDS011;3460;52.028;8.916;2023-04-24T02:06:32;0.90;;;0.70;;
6842;SDS011;3460;52.028;8.916;2023-04-24T02:08:58;0.70;;;0.60;;
6842;SDS011;3460;52.028;8.916;2023-04-24T02:11:25;0.53;;;0.50;;
6842;SDS011;3460;52.028;8.916;2023-04-24T02:13:54;1.07;;;0.70;;
6842;SDS011;3460;52.028;8.916;2023-04-24T02:16:21;0.70;;;0.50;;
6842;SDS011;3460;52.028;8.916;2023-04-24T02:18:47;0.93;;;0.70;;
6842;SDS011;3460;52.028;8.916;2023-04-24T02:21:14;1.17;;;0.67;;
6842;SDS011;3460;52.028;8.916;2023-04-24T02:23:41;1.77;;;0.60;;
6842;SDS011;3460;52.028;8.916;2023-04-24T02:26:08;0.93;;;0.60;;
6842;SDS011;3460;52.028;8.916;2023-04-24T02:28:35;0.97;;;0.60;;
6842;SDS011;3460;52.028;8.916;2023-04-24T02:31:03;2.37;;;0.77;;
6842;SDS011;3460;52.028;8.916;2023-04-24T02:33:31;1.57;;;0.90;;
6842;SDS011;3460;52.028;8.916;2023-04-24T02:35:58;0.63;;;0.57;;
6842;SDS011;3460;52.028;8.916;2023-04-24T02:38:25;3.17;;;0.70;;
6842;SDS011;3460;52.028;8.916;2023-04-24T02:40:52;1.40;;;0.80;;
6842;SDS011;3460;52.028;8.916;2023-04-24T02:43:18;0.80;;;0.60;;
6842;SDS011;3460;52.028;8.916;2023-04-24T02:45:45;0.77;;;0.70;;
6842;SDS011;3460;52.028;8.916;2023-04-24T02:48:13;0.73;;;0.70;;
6842;SDS011;3460;52.028;8.916;2023-04-24T02:50:40;0.97;;;0.87;;
6842;SDS011;3460;52.028;8.916;2023-04-24T02:53:07;0.70;;;0.70;;
6842;SDS011;3460;52.028;8.916;2023-04-24T02:55:35;0.70;;;0.60;;
6842;SDS011;3460;52.028;8.916;2023-04-24T02:58:02;1.67;;;0.70;;
6842;SDS011;3460;52.028;8.916;2023-04-24T03:00:29;1.27;;;0.70;;
6842;SDS011;3460;52.028;8.916;2023-04-24T03:02:55;1.23;;;0.60;;
6842;SDS011;3460;52.028;8.916;2023-04-24T03:05:24;1.60;;;0.60;;
6842;SDS011;3460;52.028;8.916;2023-04-24T03:07:52;0.60;;;0.60;;
6842;SDS011;3460;52.028;8.916;2023-04-24T03:10:19;0.70;;;0.53;;
6842;SDS011;3460;52.028;8.916;2023-04-24T03:12:47;1.80;;;0.77;;
6842;SDS011;3460;52.028;8.916;2023-04-24T03:15:14;1.60;;;0.67;;
6842;SDS011;3460;52.028;8.916;2023-04-24T03:17:41;1.23;;;0.90;;
6842;SDS011;3460;52.028;8.916;2023-04-24T03:20:08;0.90;;;0.80;;
6842;SDS011;3460;52.028;8.916;2023-04-24T03:22:37;0.60;;;0.60;;
6842;SDS011;3460;52.028;8.916;2023-04-24T03:25:04;2.23;;;0.70;;
6842;SDS011;3460;52.028;8.916;2023-04-24T03:27:33;0.90;;;0.67;;
6842;SDS011;3460;52.028;8.916;2023-04-24T03:30:00;0.80;;;0.70;;
6842;SDS011;3460;52.028;8.916;2023-04-24T03:32:27;1.17;;;0.80;;
6842;SDS011;3460;52.028;8.916;2023-04-24T03:34:54;1.07;;;0.83;;
6842;SDS011;3460;52.028;8.916;2023-04-24T03:37:20;0.73;;;0.70;;
6842;SDS011;3460;52.028;8.916;2023-04-24T03:39:48;0.90;;;0.70;;
6842;SDS011;3460;52.028;8.916;2023-04-24T03:42:15;0.80;;;0.80;;
6842;SDS011;3460;52.028;8.916;2023-04-24T03:44:42;1.20;;;0.77;;
6842;SDS011;3460;52.028;8.916;2023-04-24T03:47:09;0.83;;;0.67;;
6842;SDS011;3460;52.028;8.916;2023-04-24T03:49:36;0.60;;;0.60;;
6842;SDS011;3460;52.028;8.916;2023-04-24T03:52:02;0.60;;;0.60;;
6842;SDS011;3460;52.028;8.916;2023-04-24T03:54:29;1.47;;;0.80;;
6842;SDS011;3460;52.028;8.916;2023-04-24T03:56:57;0.70;;;0.70;;
6842;SDS011;3460;52.028;8.916;2023-04-24T03:59:25;0.87;;;0.67;;
6842;SDS011;3460;52.028;8.916;2023-04-24T04:01:51;1.00;;;0.90;;
6842;SDS011;3460;52.028;8.916;2023-04-24T04:04:18;0.70;;;0.70;;
6842;SDS011;3460;52.028;8.916;2023-04-24T04:06:45;0.60;;;0.60;;
6842;SDS011;3460;52.028;8.916;2023-04-24T04:09:12;0.83;;;0.80;;
6842;SDS011;3460;52.028;8.916;2023-04-24T04:11:40;1.13;;;0.80;;
6842;SDS011;3460;52.028;8.916;2023-04-24T04:14:08;1.00;;;0.90;;
6842;SDS011;3460;52.028;8.916;2023-04-24T04:16:34;1.10;;;1.00;;
6842;SDS011;3460;52.028;8.916;2023-04-24T04:19:02;3.87;;;2.70;;
6842;SDS011;3460;52.028;8.916;2023-04-24T04:21:29;2.23;;;1.80;;
6842;SDS011;3460;52.028;8.916;2023-04-24T04:23:57;2.43;;;2.17;;
6842;SDS011;3460;52.028;8.916;2023-04-24T04:26:24;2.07;;;1.30;;
6842;SDS011;3460;52.028;8.916;2023-04-24T04:28:52;1.67;;;1.57;;
6842;SDS011;3460;52.028;8.916;2023-04-24T04:31:20;1.60;;;1.40;;
6842;SDS011;3460;52.028;8.916;2023-04-24T04:33:48;2.47;;;1.47;;
6842;SDS011;3460;52.028;8.916;2023-04-24T04:36:15;3.70;;;1.33;;
6842;SDS011;3460;52.028;8.916;2023-04-24T04:38:42;3.10;;;1.60;;
6842;SDS011;3460;52.028;8.916;2023-04-24T04:41:09;3.40;;;1.70;;
6842;SDS011;3460;52.028;8.916;2023-04-24T04:43:36;2.27;;;2.03;;
6842;SDS011;3460;52.028;8.916;2023-04-24T04:46:05;2.43;;;1.73;;
6842;SDS011;3460;52.028;8.916;2023-04-24T04:48:34;2.27;;;2.07;;
6842;SDS011;3460;52.028;8.916;2023-04-24T04:51:01;2.63;;;1.90;;
6842;SDS011;3460;52.028;8.916;2023-04-24T04:53:28;2.53;;;1.90;;
6842;SDS011;3460;52.028;8.916;2023-04-24T04:55:55;3.57;;;1.80;;
6842;SDS011;3460;52.028;8.916;2023-04-24T04:58:22;1.80;;;1.70;;
6842;SDS011;3460;52.028;8.916;2023-04-24T05:00:49;3.10;;;2.70;;
6842;SDS011;3460;52.028;8.916;2023-04-24T05:03:16;20.87;;;13.63;;
6842;SDS011;3460;52.028;8.916;2023-04-24T05:05:44;3.03;;;2.40;;
6842;SDS011;3460;52.028;8.916;2023-04-24T05:08:11;2.90;;;2.33;;
6842;SDS011;3460;52.028;8.916;2023-04-24T05:10:38;5.57;;;4.97;;
6842;SDS011;3460;52.028;8.916;2023-04-24T05:13:04;3.80;;;2.40;;
6842;SDS011;3460;52.028;8.916;2023-04-24T05:15:31;5.17;;;2.77;;
6842;SDS011;3460;52.028;8.916;2023-04-24T05:17:59;2.57;;;2.20;;
6842;SDS011;3460;52.028;8.916;2023-04-24T05:20:26;5.33;;;3.93;;
6842;SDS011;3460;52.028;8.916;2023-04-24T05:22:54;3.80;;;2.90;;
6842;SDS011;3460;52.028;8.916;2023-04-24T05:25:21;4.93;;;2.87;;
6842;SDS011;3460;52.028;8.916;2023-04-24T05:27:48;10.73;;;7.60;;
6842;SDS011;3460;52.028;8.916;2023-04-24T05:30:15;4.97;;;3.13;;
6842;SDS011;3460;52.028;8.916;2023-04-24T05:32:41;5.20;;;4.13;;
6842;SDS011;3460;52.028;8.916;2023-04-24T05:35:08;5.23;;;3.90;;
6842;SDS011;3460;52.028;8.916;2023-04-24T05:37:35;5.73;;;4.13;;
6842;SDS011;3460;52.028;8.916;2023-04-24T05:40:04;6.77;;;4.50;;
6842;SDS011;3460;52.028;8.916;2023-04-24T05:42:31;6.07;;;5.47;;
6842;SDS011;3460;52.028;8.916;2023-04-24T05:44:58;6.53;;;4.67;;
6842;SDS011;3460;52.028;8.916;2023-04-24T05:47:25;6.67;;;5.33;;
6842;SDS011;3460;52.028;8.916;2023-04-24T05:49:52;9.90;;;5.23;;
6842;SDS011;3460;52.028;8.916;2023-04-24T05:52:19;7.00;;;5.60;;
6842;SDS011;3460;52.028;8.916;2023-04-24T05:54:46;5.47;;;4.93;;
6842;SDS011;3460;52.028;8.916;2023-04-24T05:57:14;6.63;;;5.20;;
6842;SDS011;3460;52.028;8.916;2023-04-24T05:59:40;8.70;;;5.30;;
6842;SDS011;3460;52.028;8.916;2023-04-24T06:02:07;7.67;;;5.40;;
6842;SDS011;3460;52.028;8.916;2023-04-24T06:04:34;6.10;;;5.50;;
6842;SDS011;3460;52.028;8.916;2023-04-24T06:07:01;7.13;;;5.80;;
6842;SDS011;3460;52.028;8.916;2023-04-24T06:09:28;8.20;;;6.03;;
6842;SDS011;3460;52.028;8.916;2023-04-24T06:11:55;7.53;;;6.27;;
6842;SDS011;3460;52.028;8.916;2023-04-24T06:14:23;8.47;;;6.37;;
6842;SDS011;3460;52.028;8.916;2023-04-24T06:16:50;8.37;;;6.43;;
6842;SDS011;3460;52.028;8.916;2023-04-24T06:19:17;9.60;;;6.40;;
6842;SDS011;3460;52.028;8.916;2023-04-24T06:21:44;8.10;;;6.47;;
6842;SDS011;3460;52.028;8.916;2023-04-24T06:24:13;7.67;;;6.87;;
6842;SDS011;3460;52.028;8.916;2023-04-24T06:26:41;10.33;;;7.17;;
6842;SDS011;3460;52.028;8.916;2023-04-24T06:29:07;10.80;;;6.53;;
6842;SDS011;3460;52.028;8.916;2023-04-24T06:31:36;8.13;;;6.73;;
6842;SDS011;3460;52.028;8.916;2023-04-24T06:34:03;9.83;;;7.40;;
6842;SDS011;3460;52.028;8.916;2023-04-24T06:36:30;8.17;;;6.47;;
6842;SDS011;3460;52.028;8.916;2023-04-24T06:38:59;8.23;;;7.10;;
6842;SDS011;3460;52.028;8.916;2023-04-24T06:41:26;7.90;;;6.63;;
6842;SDS011;3460;52.028;8.916;2023-04-24T06:43:54;8.03;;;6.90;;
6842;SDS011;3460;52.028;8.916;2023-04-24T06:46:21;8.97;;;7.90;;
6842;SDS011;3460;52.028;8.916;2023-04-24T06:48:50;8.20;;;6.90;;
6842;SDS011;3460;52.028;8.916;2023-04-24T06:51:17;8.23;;;6.80;;
6842;SDS011;3460;52.028;8.916;2023-04-24T06:53:44;7.53;;;6.70;;
6842;SDS011;3460;52.028;8.916;2023-04-24T06:56:10;9.73;;;6.83;;
6842;SDS011;3460;52.028;8.916;2023-04-24T06:58:37;8.57;;;6.70;;
6842;SDS011;3460;52.028;8.916;2023-04-24T07:01:04;7.37;;;6.40;;
6842;SDS011;3460;52.028;8.916;2023-04-24T07:03:31;8.00;;;6.63;;
6842;SDS011;3460;52.028;8.916;2023-04-24T07:05:59;8.67;;;6.93;;
6842;SDS011;3460;52.028;8.916;2023-04-24T07:08:26;7.50;;;6.57;;
6842;SDS011;3460;52.028;8.916;2023-04-24T07:10:53;7.20;;;6.40;;
6842;SDS011;3460;52.028;8.916;2023-04-24T07:13:20;9.13;;;6.57;;
6842;SDS011;3460;52.028;8.916;2023-04-24T07:15:48;9.13;;;6.40;;
6842;SDS011;3460;52.028;8.916;2023-04-24T07:18:15;7.90;;;6.47;;
6842;SDS011;3460;52.028;8.916;2023-04-24T07:20:43;8.27;;;6.57;;
6842;SDS011;3460;52.028;8.916;2023-04-24T07:23:11;7.60;;;6.30;;
6842;SDS011;3460;52.028;8.916;2023-04-24T07:25:38;8.57;;;6.53;;
6842;SDS011;3460;52.028;8.916;2023-04-24T07:28:05;9.43;;;6.67;;
6842;SDS011;3460;52.028;8.916;2023-04-24T07:30:32;7.73;;;6.20;;
6842;SDS011;3460;52.028;8.916;2023-04-24T07:32:59;7.47;;;5.87;;
6842;SDS011;3460;52.028;8.916;2023-04-24T07:35:26;8.10;;;5.70;;
6842;SDS011;3460;52.028;8.916;2023-04-24T07:37:53;6.73;;;5.63;;
6842;SDS011;3460;52.028;8.916;2023-04-24T07:40:22;8.00;;;5.77;;
6842;SDS011;3460;52.028;8.916;2023-04-24T07:42:49;6.60;;;5.67;;
6842;SDS011;3460;52.028;8.916;2023-04-24T07:45:15;8.80;;;5.83;;
6842;SDS011;3460;52.028;8.916;2023-04-24T07:47:42;6.30;;;4.50;;
6842;SDS011;3460;52.028;8.916;2023-04-24T07:50:10;5.53;;;4.93;;
6842;SDS011;3460;52.028;8.916;2023-04-24T07:52:37;6.33;;;5.03;;
6842;SDS011;3460;52.028;8.916;2023-04-24T07:55:04;6.20;;;5.03;;
6842;SDS011;3460;52.028;8.916;2023-04-24T07:57:33;6.23;;;4.90;;
6842;SDS011;3460;52.028;8.916;2023-04-24T08:00:00;5.70;;;5.17;;
6842;SDS011;3460;52.028;8.916;2023-04-24T08:02:28;6.00;;;4.70;;
6842;SDS011;3460;52.028;8.916;2023-04-24T08:04:55;6.57;;;4.80;;
6842;SDS011;3460;52.028;8.916;2023-04-24T08:07:23;6.37;;;4.67;;
6842;SDS011;3460;52.028;8.916;2023-04-24T08:09:50;6.70;;;4.50;;
6842;SDS011;3460;52.028;8.916;2023-04-24T08:12:17;7.30;;;4.17;;
6842;SDS011;3460;52.028;8.916;2023-04-24T08:14:45;4.80;;;4.30;;
6842;SDS011;3460;52.028;8.916;2023-04-24T08:17:11;6.03;;;4.40;;
6842;SDS011;3460;52.028;8.916;2023-04-24T08:19:39;5.77;;;4.60;;
6842;SDS011;3460;52.028;8.916;2023-04-24T08:22:12;7.27;;;4.77;;
6842;SDS011;3460;52.028;8.916;2023-04-24T08:24:39;6.67;;;4.43;;
6842;SDS011;3460;52.028;8.916;2023-04-24T08:27:06;6.23;;;5.17;;
6842;SDS011;3460;52.028;8.916;2023-04-24T08:29:32;5.60;;;4.57;;
6842;SDS011;3460;52.028;8.916;2023-04-24T08:32:01;5.23;;;4.70;;
6842;SDS011;3460;52.028;8.916;2023-04-24T08:34:28;5.00;;;4.40;;
6842;SDS011;3460;52.028;8.916;2023-04-24T08:36:54;4.63;;;4.23;;
6842;SDS011;3460;52.028;8.916;2023-04-24T08:39:21;4.90;;;4.40;;
6842;SDS011;3460;52.028;8.916;2023-04-24T08:41:48;6.37;;;4.30;;
6842;SDS011;3460;52.028;8.916;2023-04-24T08:44:16;4.40;;;4.00;;
6842;SDS011;3460;52.028;8.916;2023-04-24T08:46:45;5.33;;;4.80;;
6842;SDS011;3460;52.028;8.916;2023-04-24T08:49:15;4.83;;;3.90;;
6842;SDS011;3460;52.028;8.916;2023-04-24T08:51:43;4.50;;;3.97;;
6842;SDS011;3460;52.028;8.916;2023-04-24T08:54:12;4.20;;;3.80;;
6842;SDS011;3460;52.028;8.916;2023-04-24T08:56:39;3.70;;;3.17;;
6842;SDS011;3460;52.028;8.916;2023-04-24T08:59:09;3.63;;;3.00;;
6842;SDS011;3460;52.028;8.916;2023-04-24T09:01:37;4.10;;;3.47;;
6842;SDS011;3460;52.028;8.916;2023-04-24T09:04:06;3.97;;;3.50;;
6842;SDS011;3460;52.028;8.916;2023-04-24T09:06:36;4.33;;;2.90;;
6842;SDS011;3460;52.028;8.916;2023-04-24T09:09:03;3.57;;;3.13;;
6842;SDS011;3460;52.028;8.916;2023-04-24T09:11:30;5.13;;;3.40;;
6842;SDS011;3460;52.028;8.916;2023-04-24T09:13:58;3.83;;;2.93;;
6842;SDS011;3460;52.028;8.916;2023-04-24T09:16:25;3.33;;;2.50;;
6842;SDS011;3460;52.028;8.916;2023-04-24T09:18:53;3.00;;;2.70;;
6842;SDS011;3460;52.028;8.916;2023-04-24T09:21:21;3.90;;;2.73;;
6842;SDS011;3460;52.028;8.916;2023-04-24T09:23:58;2.60;;;2.30;;
6842;SDS011;3460;52.028;8.916;2023-04-24T09:26:27;4.03;;;2.50;;
6842;SDS011;3460;52.028;8.916;2023-04-24T09:28:57;4.67;;;2.73;;
6842;SDS011;3460;52.028;8.916;2023-04-24T09:31:26;4.30;;;3.60;;
6842;SDS011;3460;52.028;8.916;2023-04-24T09:33:55;3.63;;;3.00;;
6842;SDS011;3460;52.028;8.916;2023-04-24T09:36:26;2.70;;;2.50;;
6842;SDS011;3460;52.028;8.916;2023-04-24T09:38:58;2.60;;;2.10;;
6842;SDS011;3460;52.028;8.916;2023-04-24T09:41:27;3.37;;;2.03;;
6842;SDS011;3460;52.028;8.916;2023-04-24T09:43:55;2.30;;;2.10;;
6842;SDS011;3460;52.028;8.916;2023-04-24T09:46:29;2.40;;;2.07;;
6842;SDS011;3460;52.028;8.916;2023-04-24T09:48:56;2.63;;;2.00;;
6842;SDS011;3460;52.028;8.916;2023-04-24T09:51:33;2.87;;;1.87;;
6842;SDS011;3460;52.028;8.916;2023-04-24T09:54:02;1.60;;;1.47;;
6842;SDS011;3460;52.028;8.916;2023-04-24T09:56:32;2.67;;;2.10;;
6842;SDS011;3460;52.028;8.916;2023-04-24T09:59:06;2.77;;;1.80;;
6842;SDS011;3460;52.028;8.916;2023-04-24T10:01:33;3.33;;;2.10;;
6842;SDS011;3460;52.028;8.916;2023-04-24T10:04:01;2.50;;;1.90;;
6842;SDS011;3460;52.028;8.916;2023-04-24T10:06:32;2.97;;;1.87;;
6842;SDS011;3460;52.028;8.916;2023-04-24T10:09:01;1.40;;;1.30;;
6842;SDS011;3460;52.028;8.916;2023-04-24T10:11:29;2.13;;;1.60;;
6842;SDS011;3460;52.028;8.916;2023-04-24T10:13:56;3.67;;;1.57;;
6842;SDS011;3460;52.028;8.916;2023-04-24T10:16:23;1.30;;;1.20;;
6842;SDS011;3460;52.028;8.916;2023-04-24T10:18:52;1.93;;;1.23;;
6842;SDS011;3460;52.028;8.916;2023-04-24T10:21:19;1.50;;;1.30;;
6842;SDS011;3460;52.028;8.916;2023-04-24T10:23:46;1.50;;;1.30;;
6842;SDS011;3460;52.028;8.916;2023-04-24T10:26:16;2.13;;;1.50;;
6842;SDS011;3460;52.028;8.916;2023-04-24T10:28:44;2.13;;;1.40;;
6842;SDS011;3460;52.028;8.916;2023-04-24T10:31:12;2.73;;;1.77;;
6842;SDS011;3460;52.028;8.916;2023-04-24T10:33:39;16.53;;;5.00;;
6842;SDS011;3460;52.028;8.916;2023-04-24T10:36:07;3.87;;;1.53;;
6842;SDS011;3460;52.028;8.916;2023-04-24T10:38:35;1.30;;;1.00;;
6842;SDS011;3460;52.028;8.916;2023-04-24T10:41:08;2.27;;;1.10;;
6842;SDS011;3460;52.028;8.916;2023-04-24T10:43:42;0.83;;;0.80;;
6842;SDS011;3460;52.028;8.916;2023-04-24T10:46:09;1.33;;;1.00;;
6842;SDS011;3460;52.028;8.916;2023-04-24T10:48:36;2.10;;;0.80;;
6842;SDS011;3460;52.028;8.916;2023-04-24T10:51:11;1.33;;;1.00;;
6842;SDS011;3460;52.028;8.916;2023-04-24T10:53:39;0.80;;;0.80;;
6842;SDS011;3460;52.028;8.916;2023-04-24T10:56:06;1.23;;;0.80;;
6842;SDS011;3460;52.028;8.916;2023-04-24T10:58:39;1.00;;;0.90;;
6842;SDS011;3460;52.028;8.916;2023-04-24T11:01:11;1.03;;;0.90;;
6842;SDS011;3460;52.028;8.916;2023-04-24T11:03:54;1.00;;;0.90;;
6842;SDS011;3460;52.028;8.916;2023-04-24T11:06:28;0.90;;;0.77;;
6842;SDS011;3460;52.028;8.916;2023-04-24T11:08:59;1.43;;;0.90;;
6842;SDS011;3460;52.028;8.916;2023-04-24T11:11:29;0.80;;;0.80;;
6842;SDS011;3460;52.028;8.916;2023-04-24T11:14:08;1.00;;;0.87;;
6842;SDS011;3460;52.028;8.916;2023-04-24T11:16:36;1.50;;;1.00;;
6842;SDS011;3460;52.028;8.916;2023-04-24T11:19:17;1.00;;;0.90;;
6842;SDS011;3460;52.028;8.916;2023-04-24T11:21:48;1.07;;;0.73;;
6842;SDS011;3460;52.028;8.916;2023-04-24T11:24:29;1.10;;;0.90;;
6842;SDS011;3460;52.028;8.916;2023-04-24T11:26:57;1.40;;;1.10;;
6842;SDS011;3460;52.028;8.916;2023-04-24T11:29:41;1.60;;;1.30;;
6842;SDS011;3460;52.028;8.916;2023-04-24T11:32:16;2.60;;;2.20;;
6842;SDS011;3460;52.028;8.916;2023-04-24T11:34:45;1.70;;;1.30;;
6842;SDS011;3460;52.028;8.916;2023-04-24T11:37:13;1.50;;;1.10;;
6842;SDS011;3460;52.028;8.916;2023-04-24T11:39:40;1.47;;;1.00;;
6842;SDS011;3460;52.028;8.916;2023-04-24T11:42:07;1.63;;;1.00;;
6842;SDS011;3460;52.028;8.916;2023-04-24T11:44:35;1.43;;;1.10;;
6842;SDS011;3460;52.028;8.916;2023-04-24T11:47:04;1.30;;;1.00;;
6842;SDS011;3460;52.028;8.916;2023-04-24T11:49:31;1.17;;;1.03;;
6842;SDS011;3460;52.028;8.916;2023-04-24T11:51:57;1.60;;;1.20;;
6842;SDS011;3460;52.028;8.916;2023-04-24T11:54:25;1.20;;;1.10;;
6842;SDS011;3460;52.028;8.916;2023-04-24T11:56:52;1.70;;;1.10;;
6842;SDS011;3460;52.028;8.916;2023-04-24T11:59:19;1.53;;;1.10;;
6842;SDS011;3460;52.028;8.916;2023-04-24T12:01:46;1.20;;;1.07;;
6842;SDS011;3460;52.028;8.916;2023-04-24T12:04:15;1.43;;;1.23;;
6842;SDS011;3460;52.028;8.916;2023-04-24T12:09:25;1.87;;;1.20;;
6842;SDS011;3460;52.028;8.916;2023-04-24T12:11:52;1.20;;;1.10;;
6842;SDS011;3460;52.028;8.916;2023-04-24T12:14:20;1.00;;;0.90;;
6842;SDS011;3460;52.028;8.916;2023-04-24T12:16:47;1.10;;;1.00;;
6842;SDS011;3460;52.028;8.916;2023-04-24T12:19:21;0.80;;;0.80;;
6842;SDS011;3460;52.028;8.916;2023-04-24T12:24:31;0.60;;;0.60;;
6842;SDS011;3460;52.028;8.916;2023-04-24T12:26:58;0.50;;;0.50;;
6842;SDS011;3460;52.028;8.916;2023-04-24T12:29:26;1.13;;;0.70;;
6842;SDS011;3460;52.028;8.916;2023-04-24T12:31:53;1.10;;;1.00;;
6842;SDS011;3460;52.028;8.916;2023-04-24T12:34:22;0.70;;;0.60;;
6842;SDS011;3460;52.028;8.916;2023-04-24T12:36:50;0.80;;;0.70;;
6842;SDS011;3460;52.028;8.916;2023-04-24T12:39:17;0.87;;;0.87;;
6842;SDS011;3460;52.028;8.916;2023-04-24T12:41:54;1.17;;;1.00;;
6842;SDS011;3460;52.028;8.916;2023-04-24T12:44:28;1.10;;;1.00;;
6842;SDS011;3460;52.028;8.916;2023-04-24T12:46:56;1.30;;;1.10;;
6842;SDS011;3460;52.028;8.916;2023-04-24T12:49:25;2.27;;;1.30;;
6842;SDS011;3460;52.028;8.916;2023-04-24T12:51:51;2.30;;;1.30;;
6842;SDS011;3460;52.028;8.916;2023-04-24T12:54:19;1.80;;;1.53;;
6842;SDS011;3460;52.028;8.916;2023-04-24T12:56:45;1.93;;;1.30;;
6842;SDS011;3460;52.028;8.916;2023-04-24T12:59:12;2.03;;;1.63;;
6842;SDS011;3460;52.028;8.916;2023-04-24T13:01:39;4.87;;;1.63;;
6842;SDS011;3460;52.028;8.916;2023-04-24T13:04:06;3.77;;;1.77;;
6842;SDS011;3460;52.028;8.916;2023-04-24T13:06:34;2.10;;;1.63;;
6842;SDS011;3460;52.028;8.916;2023-04-24T13:09:01;3.27;;;2.17;;
6842;SDS011;3460;52.028;8.916;2023-04-24T13:11:28;4.03;;;2.17;;
6842;SDS011;3460;52.028;8.916;2023-04-24T13:13:55;4.37;;;2.60;;
6842;SDS011;3460;52.028;8.916;2023-04-24T13:16:22;6.27;;;2.30;;
6842;SDS011;3460;52.028;8.916;2023-04-24T13:18:49;3.10;;;2.40;;
6842;SDS011;3460;52.028;8.916;2023-04-24T13:21:16;6.37;;;2.93;;
6842;SDS011;3460;52.028;8.916;2023-04-24T13:23:44;4.27;;;2.60;;
6842;SDS011;3460;52.028;8.916;2023-04-24T13:26:11;6.47;;;2.77;;
6842;SDS011;3460;52.028;8.916;2023-04-24T13:28:37;3.07;;;2.77;;
6842;SDS011;3460;52.028;8.916;2023-04-24T13:31:04;4.93;;;3.07;;
6842;SDS011;3460;52.028;8.916;2023-04-24T13:33:31;3.60;;;2.93;;
6842;SDS011;3460;52.028;8.916;2023-04-24T13:35:58;3.10;;;2.50;;
6842;SDS011;3460;52.028;8.916;2023-04-24T13:38:25;3.60;;;2.57;;
6842;SDS011;3460;52.028;8.916;2023-04-24T13:40:53;6.40;;;2.90;;
6842;SDS011;3460;52.028;8.916;2023-04-24T13:43:20;3.77;;;2.80;;
6842;SDS011;3460;52.028;8.916;2023-04-24T13:45:47;3.73;;;2.40;;
6842;SDS011;3460;52.028;8.916;2023-04-24T13:48:14;3.03;;;2.30;;
6842;SDS011;3460;52.028;8.916;2023-04-24T13:50:41;3.70;;;2.20;;
6842;SDS011;3460;52.028;8.916;2023-04-24T13:53:08;3.60;;;2.30;;
6842;SDS011;3460;52.028;8.916;2023-04-24T13:55:35;3.37;;;2.50;;
6842;SDS011;3460;52.028;8.916;2023-04-24T13:58:03;3.77;;;2.47;;
6842;SDS011;3460;52.028;8.916;2023-04-24T14:00:30;3.07;;;2.40;;
6842;SDS011;3460;52.028;8.916;2023-04-24T14:02:57;3.73;;;2.80;;
6842;SDS011;3460;52.028;8.916;2023-04-24T14:05:24;4.17;;;2.63;;
6842;SDS011;3460;52.028;8.916;2023-04-24T14:07:51;4.17;;;2.20;;
6842;SDS011;3460;52.028;8.916;2023-04-24T14:10:17;6.73;;;2.57;;
6842;SDS011;3460;52.028;8.916;2023-04-24T14:12:44;5.03;;;2.80;;
6842;SDS011;3460;52.028;8.916;2023-04-24T14:15:13;5.73;;;3.43;;
6842;SDS011;3460;52.028;8.916;2023-04-24T14:17:40;7.60;;;3.20;;
6842;SDS011;3460;52.028;8.916;2023-04-24T14:20:07;6.13;;;3.87;;
6842;SDS011;3460;52.028;8.916;2023-04-24T14:22:35;8.00;;;4.43;;
6842;SDS011;3460;52.028;8.916;2023-04-24T14:25:02;8.40;;;4.93;;
6842;SDS011;3460;52.028;8.916;2023-04-24T14:27:29;11.87;;;4.23;;
6842;SDS011;3460;52.028;8.916;2023-04-24T14:29:56;8.53;;;4.67;;
6842;SDS011;3460;52.028;8.916;2023-04-24T14:32:24;12.33;;;5.10;;
6842;SDS011;3460;52.028;8.916;2023-04-24T14:34:51;8.97;;;4.70;;
6842;SDS011;3460;52.028;8.916;2023-04-24T14:37:18;12.90;;;5.37;;
6842;SDS011;3460;52.028;8.916;2023-04-24T14:39:45;8.17;;;4.70;;
6842;SDS011;3460;52.028;8.916;2023-04-24T14:42:12;11.63;;;5.03;;
6842;SDS011;3460;52.028;8.916;2023-04-24T14:44:39;7.47;;;4.83;;
6842;SDS011;3460;52.028;8.916;2023-04-24T14:47:06;11.13;;;5.70;;
6842;SDS011;3460;52.028;8.916;2023-04-24T14:49:34;13.23;;;5.27;;
6842;SDS011;3460;52.028;8.916;2023-04-24T14:52:01;10.63;;;5.40;;
6842;SDS011;3460;52.028;8.916;2023-04-24T14:54:28;14.07;;;6.37;;
6842;SDS011;3460;52.028;8.916;2023-04-24T14:56:55;8.53;;;5.07;;
6842;SDS011;3460;52.028;8.916;2023-04-24T14:59:22;10.67;;;4.87;;
6842;SDS011;3460;52.028;8.916;2023-04-24T15:01:49;12.17;;;5.03;;
6842;SDS011;3460;52.028;8.916;2023-04-24T15:04:17;9.90;;;4.83;;
6842;SDS011;3460;52.028;8.916;2023-04-24T15:06:47;9.13;;;5.07;;
6842;SDS011;3460;52.028;8.916;2023-04-24T15:09:15;9.90;;;5.40;;
6842;SDS011;3460;52.028;8.916;2023-04-24T15:11:44;10.43;;;5.40;;
6842;SDS011;3460;52.028;8.916;2023-04-24T15:14:11;9.67;;;5.70;;
6842;SDS011;3460;52.028;8.916;2023-04-24T15:16:38;7.93;;;4.50;;
6842;SDS011;3460;52.028;8.916;2023-04-24T15:19:04;9.80;;;5.23;;
6842;SDS011;3460;52.028;8.916;2023-04-24T15:21:31;15.83;;;5.83;;
6842;SDS011;3460;52.028;8.916;2023-04-24T15:23:59;10.57;;;5.20;;